createdAt,value
2018-10-02T00:01:31.140Z,17.50
2018-10-02T00:06:36.444Z,17.60
2018-10-02T00:11:46.696Z,17.70
2018-10-02T00:16:51.994Z,17.60
2018-10-02T00:21:57.535Z,17.30
2018-10-02T00:27:02.769Z,17.20
2018-10-02T00:32:07.930Z,17.10
2018-10-02T00:37:12.971Z,17.10
2018-10-02T00:42:17.878Z,17.20
2018-10-02T00:47:23.191Z,17.20
2018-10-02T00:52:28.552Z,17.00
2018-10-02T00:57:33.522Z,17.00
2018-10-02T01:02:39.427Z,16.90
2018-10-02T01:07:45.326Z,16.80
2018-10-02T01:12:50.268Z,16.80
2018-10-02T01:17:55.140Z,16.70
2018-10-02T01:23:00.125Z,16.70
2018-10-02T01:28:05.031Z,16.50
2018-10-02T01:33:10.155Z,16.40
2018-10-02T01:38:15.062Z,16.30
2018-10-02T01:43:20.024Z,16.40
2018-10-02T01:48:25.019Z,16.40
2018-10-02T01:53:29.928Z,16.20
2018-10-02T01:58:34.807Z,16.20
2018-10-02T02:03:39.894Z,16.20
2018-10-02T02:08:45.304Z,16.20
2018-10-02T02:13:50.593Z,16.10
2018-10-02T02:18:55.536Z,16.10
2018-10-02T02:24:00.556Z,16.10
2018-10-02T02:29:05.742Z,16.10
2018-10-02T02:34:10.899Z,16.20
2018-10-02T02:39:15.831Z,16.20
2018-10-02T02:44:20.880Z,16.10
2018-10-02T02:49:30.760Z,16.10
2018-10-02T02:54:36.409Z,16.00
2018-10-02T02:59:41.571Z,16.00
2018-10-02T03:04:46.539Z,15.90
2018-10-02T03:09:51.678Z,15.90
2018-10-02T03:14:56.678Z,15.90
2018-10-02T03:20:02.100Z,15.90
2018-10-02T03:25:07.088Z,15.90
2018-10-02T03:30:11.970Z,15.90
2018-10-02T03:35:16.814Z,16.00
2018-10-02T03:40:21.893Z,15.90
2018-10-02T03:45:26.891Z,16.00
2018-10-02T03:50:31.993Z,16.00
2018-10-02T03:55:37.053Z,16.10
2018-10-02T04:00:42.062Z,16.10
2018-10-02T04:05:47.013Z,16.10
2018-10-02T04:10:52.135Z,16.00
2018-10-02T04:15:57.105Z,16.00
2018-10-02T04:21:02.171Z,15.90
2018-10-02T04:26:07.705Z,15.70
2018-10-02T04:31:12.607Z,15.70
2018-10-02T04:36:17.663Z,15.60
2018-10-02T04:41:22.703Z,15.50
2018-10-02T04:46:27.597Z,15.50
2018-10-02T04:51:32.545Z,15.40
2018-10-02T04:56:37.418Z,15.50
2018-10-02T05:01:42.320Z,15.50
2018-10-02T05:06:47.205Z,15.30
2018-10-02T05:11:52.055Z,15.40
2018-10-02T05:16:56.840Z,15.30
2018-10-02T05:22:01.779Z,15.30
2018-10-02T05:27:06.804Z,15.30
2018-10-02T05:32:11.837Z,15.20
2018-10-02T05:37:16.684Z,15.10
2018-10-02T05:42:21.625Z,15.10
2018-10-02T05:47:26.797Z,14.80
2018-10-02T05:52:31.891Z,15.00
2018-10-02T05:57:38.149Z,15.00
2018-10-02T06:02:43.160Z,15.00
2018-10-02T06:07:48.263Z,15.10
2018-10-02T06:12:53.479Z,15.30
2018-10-02T06:17:58.505Z,15.50
2018-10-02T06:23:03.500Z,15.50
2018-10-02T06:28:08.678Z,15.30
2018-10-02T06:33:13.700Z,15.30
2018-10-02T06:38:19.229Z,15.30
2018-10-02T06:43:24.168Z,15.20
2018-10-02T06:48:29.364Z,15.10
2018-10-02T06:53:34.552Z,15.20
2018-10-02T06:58:39.695Z,15.50
2018-10-02T07:03:44.581Z,15.60
2018-10-02T07:08:50.641Z,15.60
2018-10-02T07:13:55.576Z,15.70
2018-10-02T07:19:00.429Z,15.90
2018-10-02T07:24:05.401Z,16.00
2018-10-02T07:29:10.296Z,16.10
2018-10-02T07:34:15.221Z,16.20
2018-10-02T07:39:20.247Z,16.30
2018-10-02T07:44:25.536Z,16.30
2018-10-02T07:49:30.439Z,16.50
2018-10-02T07:54:35.444Z,16.70
2018-10-02T07:59:40.512Z,17.00
2018-10-02T08:04:45.757Z,17.10
2018-10-02T08:09:50.808Z,17.20
2018-10-02T08:14:55.866Z,17.40
2018-10-02T08:20:00.994Z,17.70
2018-10-02T08:25:06.033Z,18.00
2018-10-02T08:30:10.982Z,18.20
2018-10-02T08:35:15.828Z,18.40
2018-10-02T08:40:20.699Z,18.60
2018-10-02T08:45:25.631Z,18.60
2018-10-02T08:50:30.806Z,18.90
2018-10-02T08:55:35.950Z,19.00
2018-10-02T09:00:41.063Z,19.30
2018-10-02T09:05:46.185Z,19.50
2018-10-02T09:10:54.045Z,19.60
2018-10-02T09:15:58.979Z,19.70
2018-10-02T09:21:04.024Z,19.90
2018-10-02T09:26:09.085Z,20.30
2018-10-02T09:31:19.237Z,20.50
2018-10-02T09:36:29.418Z,20.70
2018-10-02T09:41:39.658Z,20.90
2018-10-02T09:46:44.628Z,21.20
2018-10-02T09:51:49.896Z,21.30
2018-10-02T09:56:54.882Z,21.70
2018-10-02T10:02:04.885Z,22.00
2018-10-02T10:07:09.745Z,22.40
2018-10-02T10:12:14.594Z,22.80
2018-10-02T10:17:19.619Z,22.90
2018-10-02T10:22:24.812Z,23.50
2018-10-02T10:27:29.699Z,23.80
2018-10-02T10:32:34.624Z,23.70
2018-10-02T10:37:39.767Z,23.70
2018-10-02T10:42:44.946Z,24.30
2018-10-02T10:47:50.098Z,24.50
2018-10-02T10:52:55.254Z,24.60
2018-10-02T10:58:00.404Z,25.60
2018-10-02T11:03:05.528Z,25.50
2018-10-02T11:08:10.745Z,25.70
2018-10-02T11:13:15.789Z,25.90
2018-10-02T11:18:20.784Z,26.30
2018-10-02T11:23:26.663Z,26.20
2018-10-02T11:28:31.724Z,26.60
2018-10-02T11:33:36.862Z,26.50
2018-10-02T11:38:41.937Z,26.80
2018-10-02T11:43:47.002Z,27.50
2018-10-02T11:48:51.929Z,27.40
2018-10-02T11:53:56.993Z,27.60
2018-10-02T11:59:02.175Z,28.20
2018-10-02T12:04:07.220Z,28.60
2018-10-02T12:09:12.058Z,28.80
2018-10-02T12:14:17.287Z,28.70
2018-10-02T12:19:22.380Z,28.30
2018-10-02T12:24:27.326Z,27.90
2018-10-02T12:29:32.787Z,27.10
2018-10-02T12:34:37.782Z,27.60
2018-10-02T12:39:42.767Z,27.20
2018-10-02T12:44:48.125Z,27.70
2018-10-02T12:49:53.000Z,27.90
2018-10-02T12:54:59.505Z,28.80
2018-10-02T13:00:04.973Z,29.00
2018-10-02T13:05:09.913Z,28.10
2018-10-02T13:10:14.933Z,28.30
2018-10-02T13:15:19.745Z,29.40
2018-10-02T13:20:24.995Z,28.90
2018-10-02T13:25:30.221Z,28.40
2018-10-02T13:30:35.236Z,28.10
2018-10-02T13:35:40.209Z,28.30
2018-10-02T13:40:45.188Z,27.70
2018-10-02T13:45:50.272Z,27.60
2018-10-02T13:50:55.254Z,28.30
2018-10-02T13:56:00.793Z,29.20
2018-10-02T14:01:05.865Z,28.80
2018-10-02T14:06:11.114Z,29.60
2018-10-02T14:11:16.205Z,29.70
2018-10-02T14:16:21.411Z,29.40
2018-10-02T14:21:26.500Z,29.30
2018-10-02T14:26:31.361Z,29.70
2018-10-02T14:31:36.343Z,29.00
2018-10-02T14:36:41.339Z,28.80
2018-10-02T14:41:46.266Z,29.20
2018-10-02T14:46:51.368Z,29.80
2018-10-02T14:51:56.300Z,29.70
2018-10-02T14:57:01.207Z,29.60
2018-10-02T15:02:06.441Z,29.00
2018-10-02T15:07:11.727Z,28.70
2018-10-02T15:12:16.959Z,29.30
2018-10-02T15:17:21.802Z,29.40
2018-10-02T15:22:27.500Z,29.70
2018-10-02T15:27:32.371Z,29.20
2018-10-02T15:32:37.215Z,28.40
2018-10-02T15:37:42.176Z,28.80
2018-10-02T15:42:47.097Z,28.90
2018-10-02T15:47:51.960Z,28.80
2018-10-02T15:52:57.010Z,28.90
2018-10-02T15:58:02.935Z,28.20
2018-10-02T16:03:07.984Z,27.30
2018-10-02T16:08:13.020Z,26.40
2018-10-02T16:13:18.128Z,25.90
2018-10-02T16:18:23.437Z,25.20
2018-10-02T16:23:28.552Z,24.80
2018-10-02T16:28:33.425Z,24.40
2018-10-02T16:33:38.387Z,23.90
2018-10-02T16:38:43.314Z,23.80
2018-10-02T16:43:48.202Z,23.80
2018-10-02T16:48:53.315Z,23.70
2018-10-02T16:53:58.373Z,23.50
2018-10-02T16:59:03.349Z,23.40
2018-10-02T17:04:09.065Z,23.30
2018-10-02T17:09:14.080Z,23.00
2018-10-02T17:14:19.465Z,22.80
2018-10-02T17:19:24.520Z,22.80
2018-10-02T17:24:29.944Z,22.80
2018-10-02T17:29:35.002Z,22.70
2018-10-02T17:34:39.885Z,22.50
2018-10-02T17:39:45.023Z,22.50
2018-10-02T17:44:50.129Z,22.20
2018-10-02T17:49:55.271Z,22.20
2018-10-02T17:55:00.317Z,22.20
2018-10-02T18:00:05.989Z,21.90
2018-10-02T18:05:11.227Z,21.80
2018-10-02T18:10:16.206Z,21.20
2018-10-02T18:15:21.295Z,20.90
2018-10-02T18:20:27.344Z,20.70
2018-10-02T18:25:32.562Z,20.50
2018-10-02T18:30:38.335Z,20.60
2018-10-02T18:35:43.380Z,20.20
2018-10-02T18:40:48.432Z,20.10
2018-10-02T18:45:53.253Z,20.00
2018-10-02T18:50:58.441Z,19.80
2018-10-02T18:56:04.170Z,19.50
2018-10-02T19:01:09.183Z,19.30
2018-10-02T19:06:14.863Z,19.20
2018-10-02T19:11:25.971Z,19.30
2018-10-02T19:16:32.880Z,18.80
2018-10-02T19:21:37.757Z,18.80
2018-10-02T19:26:42.761Z,18.90
2018-10-02T19:31:52.777Z,18.80
2018-10-02T19:36:57.845Z,18.80
2018-10-02T19:42:04.003Z,18.80
2018-10-02T19:47:09.619Z,18.80
2018-10-02T19:52:18.614Z,18.80
2018-10-02T19:57:23.563Z,18.70
2018-10-02T20:02:28.494Z,18.60
2018-10-02T20:07:33.530Z,18.50
2018-10-02T20:12:38.478Z,18.60
2018-10-02T20:17:44.139Z,18.40
2018-10-02T20:22:49.348Z,18.40
2018-10-02T20:27:55.467Z,18.40
2018-10-02T20:33:00.687Z,18.40
2018-10-02T20:38:05.661Z,18.30
2018-10-02T20:43:10.532Z,18.10
2018-10-02T20:48:15.703Z,18.10
2018-10-02T20:53:20.740Z,18.10
2018-10-02T20:58:25.756Z,18.00
2018-10-02T21:03:30.754Z,18.10
2018-10-02T21:08:35.685Z,18.20
2018-10-02T21:13:41.321Z,18.10
2018-10-02T21:18:50.862Z,18.00
2018-10-02T21:23:55.846Z,18.10
2018-10-02T21:29:00.854Z,18.20
2018-10-02T21:34:05.743Z,18.30
2018-10-02T21:39:11.259Z,18.20
2018-10-02T21:44:16.397Z,17.90
2018-10-02T21:49:21.320Z,18.00
2018-10-02T21:54:26.296Z,18.10
2018-10-02T21:59:32.014Z,18.00
2018-10-02T22:04:37.255Z,18.10
2018-10-02T22:09:42.270Z,18.10
2018-10-02T22:14:47.456Z,18.20
2018-10-02T22:19:52.369Z,18.00
2018-10-02T22:24:57.395Z,17.90
2018-10-02T22:30:02.368Z,17.80
2018-10-02T22:35:19.736Z,17.70
2018-10-02T22:40:24.561Z,17.70
2018-10-02T22:45:29.640Z,17.80
2018-10-02T22:50:34.620Z,17.80
2018-10-02T22:55:39.708Z,17.50
2018-10-02T23:00:44.616Z,17.40
2018-10-02T23:05:49.658Z,17.50
2018-10-02T23:10:54.632Z,17.90
2018-10-02T23:15:59.625Z,18.00
2018-10-02T23:21:04.575Z,18.10
2018-10-02T23:26:09.541Z,18.20
2018-10-02T23:31:17.292Z,18.00
2018-10-02T23:36:22.108Z,17.60
2018-10-02T23:41:27.063Z,17.70
2018-10-02T23:46:32.086Z,17.60
2018-10-02T23:51:37.140Z,17.30
2018-10-02T23:56:42.219Z,17.50
